createdAt,value
2022-12-16T00:01:14.434Z,58.19
2022-12-16T00:03:46.027Z,58.29
2022-12-16T00:06:14.405Z,58.01
2022-12-16T00:08:42.010Z,57.82
2022-12-16T00:11:10.585Z,57.68
2022-12-16T00:13:38.618Z,57.43
2022-12-16T00:16:06.684Z,57.38
2022-12-16T00:18:33.822Z,57.13
2022-12-16T00:21:00.867Z,57.32
2022-12-16T00:23:27.619Z,57.71
2022-12-16T00:25:53.974Z,57.49
2022-12-16T00:28:24.665Z,57.58
2022-12-16T00:30:52.386Z,57.48
2022-12-16T00:33:19.449Z,57.20
2022-12-16T00:35:46.319Z,57.44
2022-12-16T00:38:13.632Z,57.45
2022-12-16T00:40:40.365Z,57.68
2022-12-16T00:43:07.528Z,57.29
2022-12-16T00:45:34.333Z,56.99
2022-12-16T00:48:01.544Z,56.73
2022-12-16T00:50:28.487Z,56.76
2022-12-16T00:52:54.981Z,56.81
2022-12-16T00:55:21.583Z,56.74
2022-12-16T00:57:48.170Z,56.78
2022-12-16T01:00:15.709Z,56.82
2022-12-16T01:02:43.275Z,57.38
2022-12-16T01:05:11.189Z,57.19
2022-12-16T01:07:38.017Z,56.92
2022-12-16T01:10:05.506Z,57.41
2022-12-16T01:12:32.455Z,57.09
2022-12-16T01:14:58.943Z,57.14
2022-12-16T01:17:26.197Z,57.39
2022-12-16T01:19:53.118Z,57.65
2022-12-16T01:22:20.398Z,57.50
2022-12-16T01:24:47.007Z,56.99
2022-12-16T01:27:15.411Z,56.96
2022-12-16T01:29:42.413Z,57.03
2022-12-16T01:32:18.029Z,57.29
2022-12-16T01:34:48.482Z,57.39
2022-12-16T01:37:18.127Z,56.87
2022-12-16T01:39:45.096Z,56.70
2022-12-16T01:42:19.228Z,56.78
2022-12-16T01:44:46.995Z,56.93
2022-12-16T01:47:16.338Z,56.91
2022-12-16T01:49:46.452Z,57.80
2022-12-16T01:52:20.269Z,60.32
2022-12-16T01:54:52.616Z,58.45
2022-12-16T01:57:24.493Z,57.33
2022-12-16T01:59:52.529Z,57.24
2022-12-16T02:02:19.566Z,57.66
2022-12-16T02:05:04.814Z,57.49
2022-12-16T02:07:31.900Z,57.63
2022-12-16T02:09:58.644Z,57.86
2022-12-16T02:12:47.340Z,57.23
2022-12-16T02:15:19.759Z,56.66
2022-12-16T02:17:52.565Z,58.51
2022-12-16T02:20:46.932Z,58.91
2022-12-16T02:23:14.279Z,57.55
2022-12-16T02:25:50.483Z,57.87
2022-12-16T02:28:46.801Z,57.34
2022-12-16T02:31:23.230Z,58.18
2022-12-16T02:33:55.883Z,58.70
2022-12-16T02:36:22.234Z,59.27
2022-12-16T02:38:56.366Z,58.47
2022-12-16T02:41:32.358Z,58.40
2022-12-16T02:43:58.731Z,57.84
2022-12-16T02:46:27.392Z,58.90
2022-12-16T02:48:54.987Z,59.07
2022-12-16T02:51:23.606Z,58.86
2022-12-16T02:53:51.881Z,58.44
2022-12-16T02:56:25.666Z,58.18
2022-12-16T02:59:11.040Z,58.11
2022-12-16T03:01:50.041Z,58.01
2022-12-16T03:04:21.729Z,57.75
2022-12-16T03:06:50.023Z,57.79
2022-12-16T03:09:20.772Z,57.86
2022-12-16T03:11:48.471Z,57.73
2022-12-16T03:14:17.834Z,58.18
2022-12-16T03:16:46.087Z,58.73
2022-12-16T03:19:13.452Z,58.53
2022-12-16T03:21:46.440Z,58.59
2022-12-16T03:24:13.891Z,58.52
2022-12-16T03:26:48.022Z,58.38
2022-12-16T03:29:16.768Z,58.17
2022-12-16T03:31:53.915Z,58.29
2022-12-16T03:34:23.491Z,58.25
2022-12-16T03:36:52.987Z,58.10
2022-12-16T03:39:21.552Z,58.07
2022-12-16T03:41:50.457Z,58.00
2022-12-16T03:44:18.552Z,58.25
2022-12-16T03:46:45.332Z,58.13
2022-12-16T03:49:12.006Z,57.91
2022-12-16T03:51:38.742Z,58.63
2022-12-16T03:54:05.526Z,58.57
2022-12-16T03:56:32.636Z,58.40
2022-12-16T03:58:59.059Z,58.23
2022-12-16T04:01:26.273Z,58.25
2022-12-16T04:03:53.579Z,58.18
2022-12-16T04:06:20.263Z,58.02
2022-12-16T04:08:48.468Z,58.22
2022-12-16T04:11:33.596Z,58.12
2022-12-16T04:14:18.735Z,58.24
2022-12-16T04:17:03.845Z,58.49
2022-12-16T04:19:50.383Z,57.54
2022-12-16T04:22:38.312Z,57.46
2022-12-16T04:25:07.700Z,59.64
2022-12-16T04:27:35.145Z,60.45
2022-12-16T04:30:19.846Z,60.47
2022-12-16T04:33:14.083Z,59.96
2022-12-16T04:35:59.249Z,59.70
2022-12-16T04:38:44.069Z,59.68
2022-12-16T04:41:29.451Z,58.47
2022-12-16T04:44:14.317Z,59.08
2022-12-16T04:46:59.216Z,59.00
2022-12-16T04:49:44.209Z,59.08
2022-12-16T04:52:29.275Z,59.01
2022-12-16T04:55:14.599Z,59.30
2022-12-16T04:57:59.865Z,59.12
2022-12-16T05:00:44.727Z,59.25
2022-12-16T05:03:30.056Z,58.90
2022-12-16T05:06:15.066Z,57.96
2022-12-16T05:08:59.968Z,57.84
2022-12-16T05:11:44.748Z,57.92
2022-12-16T05:14:29.606Z,58.16
2022-12-16T05:17:14.548Z,57.69
2022-12-16T05:19:59.627Z,57.99
2022-12-16T05:22:44.586Z,57.93
2022-12-16T05:25:29.946Z,57.95
2022-12-16T05:28:15.129Z,59.02
2022-12-16T05:31:00.287Z,59.29
2022-12-16T05:33:45.357Z,58.84
2022-12-16T05:36:30.646Z,58.59
2022-12-16T05:39:15.409Z,58.39
2022-12-16T05:42:00.234Z,58.50
2022-12-16T05:44:45.041Z,58.96
2022-12-16T05:47:29.979Z,59.79
2022-12-16T05:50:14.878Z,60.82
2022-12-16T05:53:07.117Z,60.02
2022-12-16T05:55:52.085Z,59.18
2022-12-16T05:58:37.114Z,58.45
2022-12-16T06:01:22.012Z,58.34
2022-12-16T06:04:06.934Z,58.62
2022-12-16T06:06:51.880Z,58.61
2022-12-16T06:09:36.985Z,58.73
2022-12-16T06:12:21.867Z,57.99
2022-12-16T06:15:07.005Z,57.61
2022-12-16T06:17:51.888Z,58.19
2022-12-16T06:20:36.666Z,58.49
2022-12-16T06:23:25.455Z,59.45
2022-12-16T06:26:10.438Z,59.25
2022-12-16T06:28:55.443Z,58.72
2022-12-16T06:31:40.679Z,58.32
2022-12-16T06:34:25.962Z,58.35
2022-12-16T06:37:11.013Z,59.05
2022-12-16T06:39:55.736Z,59.00
2022-12-16T06:42:40.705Z,58.96
2022-12-16T06:45:30.119Z,58.40
2022-12-16T06:48:17.881Z,58.35
2022-12-16T06:51:02.947Z,57.60
2022-12-16T06:53:47.691Z,58.33
2022-12-16T06:56:32.789Z,58.04
2022-12-16T06:59:17.446Z,58.09
2022-12-16T07:02:02.568Z,58.43
2022-12-16T07:04:47.416Z,58.06
2022-12-16T07:07:32.479Z,58.30
2022-12-16T07:10:17.258Z,58.08
2022-12-16T07:13:01.980Z,57.99
2022-12-16T07:15:47.064Z,58.23
2022-12-16T07:18:32.102Z,58.69
2022-12-16T07:21:16.966Z,58.29
2022-12-16T07:24:01.662Z,58.20
2022-12-16T07:26:46.656Z,58.03
2022-12-16T07:29:31.862Z,58.44
2022-12-16T07:32:16.831Z,59.19
2022-12-16T07:35:01.518Z,58.45
2022-12-16T07:37:46.571Z,58.52
2022-12-16T07:40:31.433Z,58.37
2022-12-16T07:43:16.171Z,58.03
2022-12-16T07:46:00.964Z,57.78
2022-12-16T07:48:45.809Z,57.75
2022-12-16T07:51:30.597Z,58.50
2022-12-16T07:54:15.268Z,58.81
2022-12-16T07:57:00.015Z,58.41
2022-12-16T07:59:44.845Z,58.69
2022-12-16T08:02:29.863Z,58.37
2022-12-16T08:05:25.672Z,58.33
2022-12-16T08:08:10.565Z,57.87
2022-12-16T08:10:55.443Z,58.16
2022-12-16T08:13:40.592Z,58.77
2022-12-16T08:16:25.872Z,59.54
2022-12-16T08:19:11.351Z,59.34
2022-12-16T08:21:56.442Z,59.19
2022-12-16T08:24:41.586Z,58.82
2022-12-16T08:27:27.464Z,59.20
2022-12-16T08:30:12.175Z,59.40
2022-12-16T08:33:00.599Z,60.28
2022-12-16T08:35:47.071Z,60.10
2022-12-16T08:38:32.047Z,61.10
2022-12-16T08:41:16.789Z,61.44
2022-12-16T08:44:01.573Z,60.55
2022-12-16T08:46:46.253Z,60.33
2022-12-16T08:49:31.113Z,60.83
2022-12-16T08:52:16.185Z,60.27
2022-12-16T08:55:01.253Z,59.73
2022-12-16T08:57:46.219Z,59.54
2022-12-16T09:00:31.010Z,59.51
2022-12-16T09:03:19.077Z,59.96
2022-12-16T09:06:04.225Z,60.63
2022-12-16T09:08:49.640Z,61.60
2022-12-16T09:11:35.190Z,62.11
2022-12-16T09:14:20.089Z,61.55
2022-12-16T09:17:04.914Z,62.25
2022-12-16T09:19:50.082Z,61.60
2022-12-16T09:22:36.223Z,61.46
2022-12-16T09:25:21.396Z,61.15
2022-12-16T09:28:09.683Z,60.56
2022-12-16T09:30:55.638Z,60.10
2022-12-16T09:33:40.807Z,60.01
2022-12-16T09:36:26.081Z,60.07
2022-12-16T09:39:10.840Z,59.80
2022-12-16T09:42:00.600Z,59.15
2022-12-16T09:44:54.754Z,58.99
2022-12-16T09:47:43.232Z,59.19
2022-12-16T09:50:40.656Z,58.66
2022-12-16T09:53:28.674Z,58.84
2022-12-16T09:56:13.792Z,58.60
2022-12-16T09:59:02.179Z,58.62
2022-12-16T10:01:50.696Z,58.90
2022-12-16T10:04:35.703Z,58.57
2022-12-16T10:07:20.997Z,58.08
2022-12-16T10:10:06.131Z,58.62
2022-12-16T10:12:57.953Z,58.93
2022-12-16T10:16:00.449Z,59.06
2022-12-16T10:19:04.248Z,58.89
2022-12-16T10:21:53.179Z,57.99
2022-12-16T10:24:51.331Z,58.56
2022-12-16T10:27:41.162Z,59.58
2022-12-16T10:30:31.285Z,58.94
2022-12-16T10:33:16.857Z,58.85
2022-12-16T10:36:07.306Z,59.25
2022-12-16T10:39:01.998Z,58.75
2022-12-16T10:41:50.775Z,58.28
2022-12-16T10:44:42.326Z,58.21
2022-12-16T10:47:28.741Z,58.73
2022-12-16T10:50:16.952Z,57.92
2022-12-16T10:53:02.893Z,57.92
2022-12-16T10:56:08.458Z,57.81
2022-12-16T10:59:11.595Z,58.12
2022-12-16T11:01:56.429Z,57.99
2022-12-16T11:04:56.116Z,57.93
2022-12-16T11:08:10.522Z,58.11
2022-12-16T11:11:00.243Z,57.86
2022-12-16T11:13:49.558Z,57.90
2022-12-16T11:16:41.828Z,57.43
2022-12-16T11:19:43.369Z,57.88
2022-12-16T11:22:32.869Z,58.10
2022-12-16T11:25:33.003Z,58.60
2022-12-16T11:28:24.060Z,57.92
2022-12-16T11:31:11.873Z,57.80
2022-12-16T11:33:57.465Z,57.58
2022-12-16T11:36:43.097Z,57.41
2022-12-16T11:39:34.245Z,57.41
2022-12-16T11:42:19.216Z,57.32
2022-12-16T11:45:08.501Z,57.01
2022-12-16T11:47:56.335Z,58.48
2022-12-16T11:50:42.758Z,59.97
2022-12-16T11:53:37.863Z,61.91
2022-12-16T11:56:28.187Z,62.57
2022-12-16T11:59:19.152Z,60.98
2022-12-16T12:02:10.923Z,60.16
2022-12-16T12:04:56.100Z,61.99
2022-12-16T12:07:44.844Z,63.24
2022-12-16T12:10:49.199Z,61.47
2022-12-16T12:13:34.615Z,59.58
2022-12-16T12:16:23.387Z,58.96
2022-12-16T12:19:11.625Z,58.58
2022-12-16T12:21:56.418Z,58.96
2022-12-16T12:25:10.882Z,58.25
2022-12-16T12:28:01.340Z,57.63
2022-12-16T12:30:50.484Z,57.57
2022-12-16T12:33:35.955Z,57.89
2022-12-16T12:36:38.044Z,57.22
2022-12-16T12:39:32.730Z,56.90
2022-12-16T12:42:36.836Z,56.98
2022-12-16T12:45:37.566Z,56.42
2022-12-16T12:48:28.062Z,56.92
2022-12-16T12:51:18.706Z,58.39
2022-12-16T12:54:17.721Z,57.90
2022-12-16T12:57:12.822Z,56.67
2022-12-16T13:00:22.174Z,56.30
2022-12-16T13:03:23.587Z,58.74
2022-12-16T13:06:12.362Z,59.44
2022-12-16T13:09:00.604Z,57.79
2022-12-16T13:11:45.709Z,57.56
2022-12-16T13:14:49.210Z,58.72
2022-12-16T13:17:38.580Z,57.81
2022-12-16T13:20:43.163Z,56.64
2022-12-16T13:23:41.367Z,55.52
2022-12-16T13:26:27.082Z,55.30
2022-12-16T13:29:38.237Z,57.06
2022-12-16T13:32:26.074Z,58.45
2022-12-16T13:35:19.857Z,56.52
2022-12-16T13:38:11.925Z,56.90
2022-12-16T13:41:07.435Z,58.16
2022-12-16T13:44:04.117Z,59.83
2022-12-16T13:47:07.331Z,60.04
2022-12-16T13:49:54.981Z,59.93
2022-12-16T13:52:53.537Z,62.22
2022-12-16T13:55:42.649Z,62.14
2022-12-16T13:58:46.465Z,60.75
2022-12-16T14:01:36.267Z,59.35
2022-12-16T14:04:21.762Z,58.16
2022-12-16T14:07:08.515Z,57.59
2022-12-16T14:09:57.991Z,58.40
2022-12-16T14:12:58.493Z,59.32
2022-12-16T14:15:47.754Z,58.53
2022-12-16T14:18:43.916Z,58.25
2022-12-16T14:21:32.140Z,57.68
2022-12-16T14:24:21.384Z,57.30
2022-12-16T14:27:06.806Z,56.94
2022-12-16T14:29:53.507Z,57.07
2022-12-16T14:32:46.484Z,56.92
2022-12-16T14:35:36.434Z,57.20
2022-12-16T14:38:40.139Z,56.96
2022-12-16T14:41:28.888Z,56.70
2022-12-16T14:44:13.717Z,56.24
2022-12-16T14:47:01.585Z,56.09
2022-12-16T14:49:48.088Z,57.52
2022-12-16T14:52:52.619Z,57.80
2022-12-16T14:55:57.997Z,58.04
2022-12-16T14:58:43.027Z,58.83
2022-12-16T15:01:43.392Z,58.35
2022-12-16T15:04:34.243Z,58.32
2022-12-16T15:07:27.756Z,58.02
2022-12-16T15:10:17.867Z,57.48
2022-12-16T15:13:05.148Z,57.42
2022-12-16T15:15:53.222Z,57.12
2022-12-16T15:18:41.053Z,57.59
2022-12-16T15:21:26.601Z,58.15
2022-12-16T15:24:11.582Z,58.89
2022-12-16T15:26:56.576Z,59.04
2022-12-16T15:29:44.578Z,58.66
2022-12-16T15:32:46.810Z,59.15
2022-12-16T15:35:45.654Z,58.99
2022-12-16T15:38:33.788Z,59.24
2022-12-16T15:41:19.596Z,59.10
2022-12-16T15:44:06.678Z,58.57
2022-12-16T15:46:52.091Z,58.53
2022-12-16T15:49:57.928Z,58.97
2022-12-16T15:52:49.766Z,58.96
2022-12-16T15:55:43.663Z,58.16
2022-12-16T15:58:51.317Z,58.72
2022-12-16T16:01:38.541Z,58.83
2022-12-16T16:04:33.816Z,59.01
2022-12-16T16:07:18.916Z,59.36
2022-12-16T16:10:04.275Z,59.23
2022-12-16T16:12:49.397Z,59.21
2022-12-16T16:15:34.882Z,58.97
2022-12-16T16:18:22.969Z,59.05
2022-12-16T16:21:08.574Z,59.08
2022-12-16T16:23:53.858Z,58.47
2022-12-16T16:26:40.448Z,58.63
2022-12-16T16:29:25.424Z,58.97
2022-12-16T16:32:13.325Z,58.33
2022-12-16T16:34:57.972Z,58.30
2022-12-16T16:37:42.962Z,57.99
2022-12-16T16:40:35.933Z,58.61
2022-12-16T16:43:20.702Z,59.02
2022-12-16T16:46:10.483Z,59.23
2022-12-16T16:48:55.557Z,57.79
2022-12-16T16:51:40.605Z,57.04
2022-12-16T16:54:25.515Z,58.37
2022-12-16T16:57:11.986Z,58.80
2022-12-16T16:59:56.680Z,58.81
2022-12-16T17:02:43.412Z,58.95
2022-12-16T17:05:29.552Z,58.83
2022-12-16T17:08:14.839Z,59.13
2022-12-16T17:11:00.199Z,58.48
2022-12-16T17:13:45.430Z,58.04
2022-12-16T17:16:31.357Z,57.92
2022-12-16T17:19:16.793Z,58.47
2022-12-16T17:22:01.825Z,58.09
2022-12-16T17:24:50.296Z,58.47
2022-12-16T17:27:39.437Z,57.77
2022-12-16T17:30:47.623Z,58.23
2022-12-16T17:33:33.980Z,57.90
2022-12-16T17:36:19.250Z,57.69
2022-12-16T17:39:04.244Z,57.87
2022-12-16T17:41:50.629Z,58.29
2022-12-16T17:44:36.184Z,58.58
2022-12-16T17:47:21.158Z,58.50
2022-12-16T17:50:07.160Z,57.87
2022-12-16T17:52:52.197Z,57.73
2022-12-16T17:55:37.471Z,57.71
2022-12-16T17:58:23.630Z,57.81
2022-12-16T18:01:08.479Z,57.63
2022-12-16T18:03:53.520Z,57.43
2022-12-16T18:06:38.549Z,57.84
2022-12-16T18:09:23.528Z,57.55
2022-12-16T18:12:08.413Z,57.58
2022-12-16T18:14:53.510Z,57.01
2022-12-16T18:17:38.451Z,57.39
2022-12-16T18:20:23.606Z,56.91
2022-12-16T18:23:10.843Z,57.35
2022-12-16T18:25:56.045Z,57.19
2022-12-16T18:28:41.195Z,57.77
2022-12-16T18:31:26.297Z,57.83
2022-12-16T18:34:11.432Z,57.55
2022-12-16T18:36:56.147Z,57.70
2022-12-16T18:39:41.213Z,57.17
2022-12-16T18:42:26.823Z,57.13
2022-12-16T18:45:11.880Z,57.91
2022-12-16T18:47:56.726Z,57.82
2022-12-16T18:50:41.826Z,58.10
2022-12-16T18:53:26.896Z,57.96
2022-12-16T18:56:22.494Z,58.33
2022-12-16T18:59:07.750Z,59.63
2022-12-16T19:01:53.281Z,59.88
2022-12-16T19:04:39.527Z,59.44
2022-12-16T19:07:24.798Z,59.04
2022-12-16T19:10:09.689Z,58.82
2022-12-16T19:12:54.700Z,58.84
2022-12-16T19:15:41.741Z,58.93
2022-12-16T19:18:30.020Z,59.08
2022-12-16T19:21:15.356Z,58.42
2022-12-16T19:24:00.539Z,58.20
2022-12-16T19:26:45.829Z,57.81
2022-12-16T19:29:30.629Z,57.83
2022-12-16T19:32:15.690Z,58.57
2022-12-16T19:35:01.027Z,58.27
2022-12-16T19:37:46.054Z,57.88
2022-12-16T19:40:30.958Z,57.75
2022-12-16T19:43:15.868Z,57.53
2022-12-16T19:46:00.940Z,57.53
2022-12-16T19:48:45.835Z,57.96
2022-12-16T19:51:30.874Z,57.99
2022-12-16T19:54:15.503Z,57.87
2022-12-16T19:57:00.340Z,58.05
2022-12-16T19:59:45.088Z,58.33
2022-12-16T20:02:30.485Z,58.15
2022-12-16T20:05:15.810Z,57.78
2022-12-16T20:08:14.225Z,57.96
2022-12-16T20:10:59.076Z,57.26
2022-12-16T20:13:44.138Z,57.31
2022-12-16T20:16:29.913Z,56.90
2022-12-16T20:19:14.768Z,57.02
2022-12-16T20:25:05.626Z,57.03
2022-12-16T20:27:50.605Z,56.73
2022-12-16T20:30:36.896Z,56.57
2022-12-16T20:33:22.090Z,56.59
2022-12-16T20:36:13.634Z,56.58
2022-12-16T20:38:58.761Z,56.86
2022-12-16T20:41:43.890Z,56.92
2022-12-16T20:44:31.912Z,57.22
2022-12-16T20:47:16.832Z,57.28
2022-12-16T20:50:01.684Z,57.65
2022-12-16T20:52:46.405Z,56.86
2022-12-16T20:55:31.280Z,56.53
2022-12-16T20:58:16.287Z,56.61
2022-12-16T21:01:01.496Z,56.78
2022-12-16T21:03:48.094Z,56.83
2022-12-16T21:06:32.910Z,56.79
2022-12-16T21:09:28.720Z,57.18
2022-12-16T21:12:13.639Z,56.72
2022-12-16T21:14:59.658Z,56.89
2022-12-16T21:17:44.892Z,57.17
2022-12-16T21:20:31.983Z,57.74
2022-12-16T21:23:20.964Z,57.41
2022-12-16T21:26:06.898Z,57.34
2022-12-16T21:28:52.481Z,57.26
2022-12-16T21:31:47.413Z,57.61
2022-12-16T21:34:32.734Z,57.50
2022-12-16T21:37:19.082Z,58.13
2022-12-16T21:40:04.051Z,57.80
2022-12-16T21:46:00.901Z,57.66
2022-12-16T21:48:45.881Z,57.85
2022-12-16T21:51:30.957Z,58.35
2022-12-16T21:54:32.397Z,58.66
2022-12-16T21:57:17.114Z,58.63
2022-12-16T22:00:02.013Z,58.14
2022-12-16T22:02:59.622Z,58.44
2022-12-16T22:06:03.718Z,58.37
2022-12-16T22:08:48.859Z,58.79
2022-12-16T22:11:34.007Z,58.89
2022-12-16T22:14:19.017Z,59.21
2022-12-16T22:20:10.909Z,58.98
2022-12-16T22:22:55.668Z,58.87
2022-12-16T22:25:41.148Z,58.66
2022-12-16T22:28:26.487Z,58.86
2022-12-16T22:31:15.860Z,58.92
2022-12-16T22:34:01.368Z,62.14
2022-12-16T22:36:20.935Z,56.92
2022-12-16T22:36:46.612Z,62.05
2022-12-16T22:42:34.710Z,59.88
2022-12-16T22:45:20.928Z,59.86
2022-12-16T22:48:05.883Z,59.64
2022-12-16T22:50:51.052Z,59.38
2022-12-16T22:53:36.622Z,58.21
2022-12-16T22:56:21.763Z,58.34
2022-12-16T22:59:07.346Z,59.40
2022-12-16T23:01:52.484Z,59.10
2022-12-16T23:04:37.445Z,59.44
2022-12-16T23:07:22.501Z,59.86
2022-12-16T23:10:07.560Z,59.79
2022-12-16T23:12:53.710Z,59.68
2022-12-16T23:15:41.803Z,59.24
2022-12-16T23:18:26.815Z,59.60
2022-12-16T23:21:12.057Z,59.52
2022-12-16T23:23:57.187Z,59.46
2022-12-16T23:26:42.163Z,59.60
2022-12-16T23:29:27.185Z,59.88
2022-12-16T23:32:12.086Z,60.00
2022-12-16T23:35:00.053Z,59.81
2022-12-16T23:37:44.980Z,59.68
2022-12-16T23:40:30.481Z,59.85
2022-12-16T23:43:15.679Z,59.86
2022-12-16T23:46:01.660Z,58.90
2022-12-16T23:48:46.771Z,58.80
2022-12-16T23:51:32.049Z,59.29
2022-12-16T23:54:24.406Z,59.20
2022-12-16T23:57:09.119Z,59.25
2022-12-16T23:59:54.894Z,59.55
